createdAt,value
2022-08-25T00:01:40.153Z,100527.44
2022-08-25T00:04:42.784Z,100528.28
2022-08-25T00:07:46.583Z,100524.28
2022-08-25T00:10:54.003Z,100538.03
2022-08-25T00:14:10.561Z,100531.47
2022-08-25T00:17:13.358Z,100534.53
2022-08-25T00:20:15.988Z,100529.34
2022-08-25T00:23:19.629Z,100523.66
2022-08-25T00:26:21.943Z,100518.56
2022-08-25T00:29:27.948Z,100515.37
2022-08-25T00:32:30.192Z,100518.13
2022-08-25T00:35:32.741Z,100518.34
2022-08-25T00:38:35.366Z,100512.97
2022-08-25T00:41:41.084Z,100514.75
2022-08-25T00:44:44.189Z,100506.97
2022-08-25T00:47:47.106Z,100510.44
2022-08-25T00:50:49.459Z,100519.38
2022-08-25T00:53:52.156Z,100521.50
2022-08-25T00:56:55.147Z,100514.09
2022-08-25T00:59:57.919Z,100516.88
2022-08-25T01:03:00.260Z,100520.66
2022-08-25T01:06:04.122Z,100519.25
2022-08-25T01:09:07.346Z,100512.41
2022-08-25T01:12:10.265Z,100512.09
2022-08-25T01:15:13.567Z,100524.59
2022-08-25T01:18:16.348Z,100522.94
2022-08-25T01:21:20.444Z,100510.25
2022-08-25T01:24:34.131Z,100508.47
2022-08-25T01:27:36.406Z,100510.56
2022-08-25T01:30:39.136Z,100517.41
2022-08-25T01:33:42.678Z,100506.22
2022-08-25T01:36:45.270Z,100511.91
2022-08-25T01:39:48.029Z,100510.38
2022-08-25T01:43:19.880Z,100503.44
2022-08-25T01:46:22.231Z,100507.91
2022-08-25T01:49:25.058Z,100510.75
2022-08-25T01:52:33.286Z,100511.16
2022-08-25T01:55:51.793Z,100510.19
2022-08-25T01:58:54.233Z,100512.81
2022-08-25T02:01:59.695Z,100500.81
2022-08-25T02:05:02.882Z,100511.16
2022-08-25T02:08:05.425Z,100514.72
2022-08-25T02:11:11.974Z,100514.31
2022-08-25T02:14:15.284Z,100510.59
2022-08-25T02:17:17.883Z,100509.06
2022-08-25T02:20:20.288Z,100507.69
2022-08-25T02:23:23.068Z,100508.34
2022-08-25T02:26:25.407Z,100505.66
2022-08-25T02:29:27.996Z,100506.47
2022-08-25T02:32:30.339Z,100503.19
2022-08-25T02:35:32.954Z,100508.66
2022-08-25T02:38:35.937Z,100515.69
2022-08-25T02:41:39.017Z,100507.72
2022-08-25T02:44:41.287Z,100501.03
2022-08-25T02:47:44.222Z,100501.16
2022-08-25T02:50:47.315Z,100502.09
2022-08-25T02:53:50.049Z,100503.78
2022-08-25T02:56:52.389Z,100496.75
2022-08-25T02:59:55.030Z,100489.59
2022-08-25T03:02:57.577Z,100493.34
2022-08-25T03:06:00.311Z,100497.78
2022-08-25T03:09:03.111Z,100501.22
2022-08-25T03:12:05.936Z,100498.81
2022-08-25T03:15:13.101Z,100492.69
2022-08-25T03:18:16.093Z,100491.66
2022-08-25T03:21:19.524Z,100498.59
2022-08-25T03:24:23.048Z,100502.38
2022-08-25T03:27:25.768Z,100495.88
2022-08-25T03:30:29.431Z,100492.59
2022-08-25T03:33:31.771Z,100493.84
2022-08-25T03:36:34.599Z,100501.06
2022-08-25T03:39:39.529Z,100497.69
2022-08-25T03:42:44.986Z,100508.22
2022-08-25T03:45:47.927Z,100493.91
2022-08-25T03:48:50.923Z,100497.69
2022-08-25T03:51:54.737Z,100498.63
2022-08-25T03:54:57.318Z,100499.38
2022-08-25T03:57:59.714Z,100495.91
2022-08-25T04:01:02.355Z,100501.75
2022-08-25T04:04:05.532Z,100501.06
2022-08-25T04:07:07.854Z,100499.38
2022-08-25T04:10:10.627Z,100499.94
2022-08-25T04:13:12.863Z,100502.19
2022-08-25T04:16:23.857Z,100501.22
2022-08-25T04:19:26.504Z,100501.78
2022-08-25T04:22:29.921Z,100506.69
2022-08-25T04:25:32.299Z,100513.25
2022-08-25T04:28:34.994Z,100500.81
2022-08-25T04:31:39.492Z,100496.72
2022-08-25T04:34:43.413Z,100507.00
2022-08-25T04:37:48.152Z,100500.63
2022-08-25T04:40:57.814Z,100500.75
2022-08-25T04:44:00.835Z,100500.25
2022-08-25T04:47:04.032Z,100495.28
2022-08-25T04:50:07.335Z,100491.50
2022-08-25T04:53:10.527Z,100491.97
2022-08-25T04:56:15.431Z,100493.97
2022-08-25T04:59:18.662Z,100493.34
2022-08-25T05:02:21.384Z,100493.88
2022-08-25T05:05:24.739Z,100501.28
2022-08-25T05:08:27.431Z,100502.44
2022-08-25T05:11:30.104Z,100501.06
2022-08-25T05:14:35.311Z,100502.78
2022-08-25T05:17:38.028Z,100494.34
2022-08-25T05:20:40.294Z,100495.16
2022-08-25T05:23:43.088Z,100491.66
2022-08-25T05:26:45.409Z,100496.06
2022-08-25T05:29:48.217Z,100492.88
2022-08-25T05:32:50.487Z,100496.72
2022-08-25T05:35:53.201Z,100486.09
2022-08-25T05:38:55.685Z,100492.62
2022-08-25T05:41:58.224Z,100491.34
2022-08-25T05:45:00.541Z,100501.63
2022-08-25T05:48:03.393Z,100503.12
2022-08-25T05:51:06.984Z,100496.50
2022-08-25T05:54:09.689Z,100499.06
2022-08-25T05:57:11.999Z,100500.16
2022-08-25T06:00:14.716Z,100500.28
2022-08-25T06:03:17.808Z,100499.94
2022-08-25T06:06:21.544Z,100499.22
2022-08-25T06:09:24.319Z,100496.62
2022-08-25T06:12:26.719Z,100500.50
2022-08-25T06:15:29.311Z,100496.34
2022-08-25T06:18:32.760Z,100505.16
2022-08-25T06:21:35.615Z,100503.22
2022-08-25T06:24:37.924Z,100508.44
2022-08-25T06:27:40.471Z,100510.12
2022-08-25T06:30:42.814Z,100511.59
2022-08-25T06:33:45.731Z,100525.66
2022-08-25T06:36:48.951Z,100522.06
2022-08-25T06:39:52.117Z,100522.09
2022-08-25T06:42:54.460Z,100523.16
2022-08-25T06:45:57.164Z,100525.31
2022-08-25T06:49:00.796Z,100523.31
2022-08-25T06:52:04.075Z,100515.97
2022-08-25T06:55:08.792Z,100520.75
2022-08-25T06:58:11.408Z,100515.47
2022-08-25T07:01:19.572Z,100516.53
2022-08-25T07:04:22.454Z,100514.91
2022-08-25T07:07:24.764Z,100508.28
2022-08-25T07:10:27.416Z,100510.31
2022-08-25T07:13:33.183Z,100507.28
2022-08-25T07:16:36.981Z,100497.69
2022-08-25T07:19:41.054Z,100500.44
2022-08-25T07:22:43.758Z,100492.44
2022-08-25T07:25:46.404Z,100498.22
2022-08-25T07:28:49.327Z,100495.78
2022-08-25T07:31:52.695Z,100484.31
2022-08-25T07:35:14.679Z,100485.47
2022-08-25T07:38:20.731Z,100488.78
2022-08-25T07:41:23.621Z,100488.34
2022-08-25T07:44:28.092Z,100492.47
2022-08-25T07:47:31.558Z,100487.78
2022-08-25T07:50:34.672Z,100476.28
2022-08-25T07:53:37.623Z,100474.00
2022-08-25T07:56:41.433Z,100464.69
2022-08-25T07:59:44.043Z,100461.63
2022-08-25T08:02:46.415Z,100458.69
2022-08-25T08:05:49.063Z,100459.94
2022-08-25T08:08:54.853Z,100468.38
2022-08-25T08:12:00.497Z,100467.50
2022-08-25T08:15:03.367Z,100456.34
2022-08-25T08:18:12.805Z,100460.41
2022-08-25T08:21:19.225Z,100470.59
2022-08-25T08:24:43.986Z,100467.00
2022-08-25T08:27:46.203Z,100469.34
2022-08-25T08:30:53.764Z,100465.03
2022-08-25T08:33:57.308Z,100468.25
2022-08-25T08:37:00.620Z,100454.56
2022-08-25T08:40:03.586Z,100456.72
2022-08-25T08:43:17.985Z,100456.56
2022-08-25T08:46:22.823Z,100454.13
2022-08-25T08:49:40.977Z,100461.47
2022-08-25T08:52:59.631Z,100455.09
2022-08-25T08:56:11.714Z,100458.78
2022-08-25T08:59:19.587Z,100447.97
2022-08-25T09:02:51.607Z,100446.00
2022-08-25T09:05:56.152Z,100447.50
2022-08-25T09:09:02.050Z,100451.09
2022-08-25T09:12:10.401Z,100451.38
2022-08-25T09:15:20.153Z,100450.00
2022-08-25T09:18:23.300Z,100443.03
2022-08-25T09:21:49.158Z,100439.81
2022-08-25T09:24:57.573Z,100433.94
2022-08-25T09:28:08.273Z,100430.94
2022-08-25T09:31:18.754Z,100422.63
2022-08-25T09:34:26.666Z,100421.78
2022-08-25T09:37:30.578Z,100418.84
2022-08-25T09:40:37.717Z,100421.84
2022-08-25T09:43:44.703Z,100415.25
2022-08-25T09:47:04.302Z,100400.19
2022-08-25T09:50:18.500Z,100399.94
2022-08-25T09:53:22.520Z,100398.38
2022-08-25T09:56:27.947Z,100394.16
2022-08-25T09:59:35.971Z,100390.53
2022-08-25T10:02:38.888Z,100386.66
2022-08-25T10:05:50.141Z,100379.41
2022-08-25T10:09:06.619Z,100376.69
2022-08-25T10:12:17.791Z,100365.75
2022-08-25T10:15:29.784Z,100366.56
2022-08-25T10:18:33.365Z,100373.97
2022-08-25T10:21:38.436Z,100360.31
2022-08-25T10:24:43.967Z,100365.50
2022-08-25T10:27:53.956Z,100362.50
2022-08-25T10:31:13.918Z,100355.13
2022-08-25T10:34:31.590Z,100353.56
2022-08-25T10:37:52.813Z,100345.41
2022-08-25T10:41:00.359Z,100339.22
2022-08-25T10:44:43.260Z,100341.13
2022-08-25T10:48:04.393Z,100341.31
2022-08-25T10:51:19.516Z,100340.41
2022-08-25T10:54:31.557Z,100340.47
2022-08-25T10:57:48.333Z,100334.19
2022-08-25T11:01:09.740Z,100330.75
2022-08-25T11:04:27.740Z,100332.97
2022-08-25T11:07:44.986Z,100325.97
2022-08-25T11:11:09.322Z,100309.38
2022-08-25T11:14:23.449Z,100307.87
2022-08-25T11:17:39.659Z,100313.25
2022-08-25T11:20:58.407Z,100300.59
2022-08-25T11:24:20.832Z,100295.28
2022-08-25T11:27:25.866Z,100294.75
2022-08-25T11:30:30.149Z,100292.62
2022-08-25T11:33:33.699Z,100296.62
2022-08-25T11:36:40.530Z,100288.31
2022-08-25T11:39:42.902Z,100279.44
2022-08-25T11:42:51.883Z,100277.41
2022-08-25T11:46:01.021Z,100267.47
2022-08-25T11:49:15.233Z,100266.38
2022-08-25T11:52:32.820Z,100259.09
2022-08-25T11:55:37.373Z,100254.63
2022-08-25T11:58:45.107Z,100248.94
2022-08-25T12:01:47.922Z,100249.31
2022-08-25T12:04:51.585Z,100247.59
2022-08-25T12:08:20.119Z,100245.50
2022-08-25T12:11:38.850Z,100246.47
2022-08-25T12:14:45.418Z,100237.56
2022-08-25T12:18:23.712Z,100238.19
2022-08-25T12:21:30.877Z,100240.87
2022-08-25T12:24:47.790Z,100241.03
2022-08-25T12:27:59.968Z,100238.13
2022-08-25T12:31:15.844Z,100244.59
2022-08-25T12:34:27.474Z,100236.16
2022-08-25T12:37:30.204Z,100233.47
2022-08-25T12:40:35.152Z,100231.00
2022-08-25T12:43:42.400Z,100232.94
2022-08-25T12:46:44.997Z,100228.19
2022-08-25T12:49:48.391Z,100216.22
2022-08-25T12:52:52.658Z,100218.66
2022-08-25T12:55:59.977Z,100217.38
2022-08-25T12:59:03.476Z,100209.09
2022-08-25T13:02:12.124Z,100214.84
2022-08-25T13:05:33.909Z,100215.41
2022-08-25T13:08:56.241Z,100211.41
2022-08-25T13:12:12.604Z,100206.03
2022-08-25T13:15:25.148Z,100200.47
2022-08-25T13:18:29.731Z,100201.12
2022-08-25T13:21:37.203Z,100208.25
2022-08-25T13:24:41.500Z,100199.44
2022-08-25T13:27:47.981Z,100194.16
2022-08-25T13:30:58.811Z,100195.69
2022-08-25T13:34:05.375Z,100188.19
2022-08-25T13:37:30.371Z,100189.91
2022-08-25T13:40:36.511Z,100188.25
2022-08-25T13:43:40.135Z,100186.66
2022-08-25T13:46:45.357Z,100182.16
2022-08-25T13:49:47.843Z,100185.91
2022-08-25T13:52:58.926Z,100184.16
2022-08-25T13:56:02.452Z,100185.03
2022-08-25T13:59:07.104Z,100179.56
2022-08-25T14:02:19.274Z,100181.09
2022-08-25T14:05:33.724Z,100183.28
2022-08-25T14:08:39.729Z,100180.63
2022-08-25T14:11:44.498Z,100177.34
2022-08-25T14:14:57.211Z,100169.37
2022-08-25T14:18:20.809Z,100170.19
2022-08-25T14:21:30.529Z,100172.44
2022-08-25T14:24:37.615Z,100153.09
2022-08-25T14:28:03.482Z,100158.50
2022-08-25T14:31:13.683Z,100158.22
2022-08-25T14:34:22.994Z,100162.16
2022-08-25T14:37:26.773Z,100160.31
2022-08-25T14:40:34.091Z,100153.72
2022-08-25T14:43:37.223Z,100145.50
2022-08-25T14:46:50.926Z,100140.72
2022-08-25T14:49:53.582Z,100143.97
2022-08-25T14:52:58.307Z,100138.22
2022-08-25T14:56:06.885Z,100137.31
2022-08-25T14:59:11.660Z,100140.25
2022-08-25T15:02:20.088Z,100139.34
2022-08-25T15:05:28.439Z,100135.19
2022-08-25T15:08:49.847Z,100134.41
2022-08-25T15:11:54.537Z,100138.94
2022-08-25T15:14:58.176Z,100137.50
2022-08-25T15:18:01.317Z,100136.72
2022-08-25T15:21:04.149Z,100135.19
2022-08-25T15:24:07.420Z,100139.53
2022-08-25T15:27:11.064Z,100138.78
2022-08-25T15:30:14.139Z,100130.44
2022-08-25T15:33:17.392Z,100131.97
2022-08-25T15:36:22.317Z,100127.19
2022-08-25T15:39:27.656Z,100135.56
2022-08-25T15:42:30.041Z,100121.66
2022-08-25T15:45:33.020Z,100120.97
2022-08-25T15:48:35.904Z,100117.25
2022-08-25T15:51:38.553Z,100113.81
2022-08-25T15:54:40.944Z,100112.81
2022-08-25T15:57:44.700Z,100111.31
2022-08-25T16:00:56.163Z,100105.75
2022-08-25T16:03:59.531Z,100101.59
2022-08-25T16:07:01.857Z,100104.09
2022-08-25T16:10:07.108Z,100104.47
2022-08-25T16:13:10.610Z,100099.44
2022-08-25T16:16:15.512Z,100102.97
2022-08-25T16:19:17.894Z,100100.72
2022-08-25T16:22:20.479Z,100104.66
2022-08-25T16:25:22.789Z,100096.84
2022-08-25T16:28:25.514Z,100102.31
2022-08-25T16:31:27.847Z,100093.12
2022-08-25T16:34:30.921Z,100099.22
2022-08-25T16:37:35.890Z,100094.31
2022-08-25T16:40:39.522Z,100098.37
2022-08-25T16:43:44.376Z,100100.12
2022-08-25T16:46:47.168Z,100098.81
2022-08-25T16:49:49.480Z,100101.84
2022-08-25T16:53:10.938Z,100099.19
2022-08-25T16:56:13.795Z,100096.94
2022-08-25T16:59:17.232Z,100103.72
2022-08-25T17:02:19.596Z,100099.72
2022-08-25T17:05:24.350Z,100107.34
2022-08-25T17:08:30.779Z,100107.22
2022-08-25T17:11:35.973Z,100114.31
2022-08-25T17:14:38.262Z,100123.88
2022-08-25T17:17:40.792Z,100127.09
2022-08-25T17:20:44.726Z,100121.44
2022-08-25T17:23:47.823Z,100124.47
2022-08-25T17:26:53.710Z,100120.62
2022-08-25T17:29:58.833Z,100116.47
2022-08-25T17:33:02.521Z,100118.16
2022-08-25T17:36:06.146Z,100123.84
2022-08-25T17:39:09.537Z,100125.13
2022-08-25T17:42:12.194Z,100125.16
2022-08-25T17:45:14.603Z,100125.81
2022-08-25T17:48:18.017Z,100123.44
2022-08-25T17:51:21.068Z,100127.44
2022-08-25T17:54:23.664Z,100120.06
2022-08-25T17:57:27.108Z,100123.97
2022-08-25T18:00:30.081Z,100132.66
2022-08-25T18:03:33.496Z,100141.47
2022-08-25T18:06:35.819Z,100145.28
2022-08-25T18:09:38.540Z,100146.19
2022-08-25T18:12:41.514Z,100142.31
2022-08-25T18:15:45.604Z,100149.28
2022-08-25T18:18:47.998Z,100154.53
2022-08-25T18:21:52.550Z,100159.81
2022-08-25T18:24:55.116Z,100152.34
2022-08-25T18:27:58.236Z,100150.47
2022-08-25T18:31:00.604Z,100149.63
2022-08-25T18:34:04.970Z,100157.19
2022-08-25T18:37:25.853Z,100159.78
2022-08-25T18:40:29.077Z,100150.84
2022-08-25T18:43:33.971Z,100149.28
2022-08-25T18:46:36.801Z,100153.41
2022-08-25T18:49:39.598Z,100154.84
2022-08-25T18:52:42.163Z,100154.56
2022-08-25T18:55:45.531Z,100150.31
2022-08-25T18:58:48.602Z,100143.09
2022-08-25T19:01:52.540Z,100151.63
2022-08-25T19:04:55.369Z,100146.09
2022-08-25T19:07:58.603Z,100153.41
2022-08-25T19:11:02.835Z,100144.34
2022-08-25T19:14:12.046Z,100146.22
2022-08-25T19:17:15.175Z,100157.72
2022-08-25T19:20:17.906Z,100157.28
2022-08-25T19:23:20.600Z,100154.69
2022-08-25T19:26:23.297Z,100156.44
2022-08-25T19:29:26.511Z,100154.06
2022-08-25T19:32:32.949Z,100155.06
2022-08-25T19:35:37.467Z,100155.06
2022-08-25T19:38:40.787Z,100150.88
2022-08-25T19:41:46.689Z,100147.38
2022-08-25T19:44:52.528Z,100155.53
2022-08-25T19:47:56.166Z,100155.19
2022-08-25T19:50:59.370Z,100149.44
2022-08-25T19:54:02.846Z,100159.06
2022-08-25T19:57:07.766Z,100154.88
2022-08-25T20:00:18.447Z,100159.00
2022-08-25T20:03:22.000Z,100156.34
2022-08-25T20:06:24.618Z,100164.38
2022-08-25T20:09:39.433Z,100158.81
2022-08-25T20:12:44.706Z,100158.81
2022-08-25T20:15:47.965Z,100158.31
2022-08-25T20:18:50.372Z,100165.09
2022-08-25T20:21:52.943Z,100165.69
2022-08-25T20:25:01.171Z,100157.31
2022-08-25T20:28:04.301Z,100164.84
2022-08-25T20:31:06.577Z,100167.06
2022-08-25T20:34:09.278Z,100168.72
2022-08-25T20:37:12.532Z,100170.19
2022-08-25T20:40:17.955Z,100173.31
2022-08-25T20:43:23.219Z,100170.84
2022-08-25T20:46:26.432Z,100175.03
2022-08-25T20:49:30.592Z,100167.59
2022-08-25T20:52:43.740Z,100167.88
2022-08-25T20:55:47.350Z,100170.16
2022-08-25T20:58:50.137Z,100164.12
2022-08-25T21:01:53.051Z,100169.44
2022-08-25T21:04:57.061Z,100174.22
2022-08-25T21:07:59.597Z,100173.97
2022-08-25T21:11:02.234Z,100172.97
2022-08-25T21:14:06.094Z,100166.25
2022-08-25T21:17:13.125Z,100165.16
2022-08-25T21:20:16.436Z,100165.41
2022-08-25T21:23:19.099Z,100160.25
2022-08-25T21:26:23.419Z,100154.41
2022-08-25T21:29:28.513Z,100147.66
2022-08-25T21:32:30.940Z,100155.19
2022-08-25T21:35:33.601Z,100159.09
2022-08-25T21:38:37.242Z,100146.66
2022-08-25T21:41:44.196Z,100146.50
2022-08-25T21:44:47.603Z,100147.06
2022-08-25T21:47:50.271Z,100154.34
2022-08-25T21:51:07.922Z,100152.34
2022-08-25T21:54:14.711Z,100150.66
2022-08-25T21:57:19.142Z,100145.75
2022-08-25T22:00:26.203Z,100139.22
2022-08-25T22:03:28.776Z,100145.19
2022-08-25T22:06:31.135Z,100144.19
2022-08-25T22:09:34.012Z,100149.09
2022-08-25T22:12:36.429Z,100156.72
2022-08-25T22:15:39.003Z,100150.00
2022-08-25T22:18:42.271Z,100147.31
2022-08-25T22:21:45.552Z,100151.47
2022-08-25T22:24:47.851Z,100160.09
2022-08-25T22:27:56.502Z,100164.69
2022-08-25T22:31:04.068Z,100164.12
2022-08-25T22:34:06.828Z,100159.94
2022-08-25T22:37:09.166Z,100158.94
2022-08-25T22:40:12.083Z,100160.19
2022-08-25T22:43:14.446Z,100154.63
2022-08-25T22:46:17.673Z,100153.63
2022-08-25T22:49:20.075Z,100149.03
2022-08-25T22:52:32.013Z,100149.37
2022-08-25T22:55:41.040Z,100143.66
2022-08-25T22:58:43.921Z,100137.91
2022-08-25T23:01:54.636Z,100139.97
2022-08-25T23:04:57.827Z,100147.22
2022-08-25T23:08:03.467Z,100137.97
2022-08-25T23:11:09.926Z,100146.31
2022-08-25T23:14:12.266Z,100142.41
2022-08-25T23:17:15.163Z,100136.75
2022-08-25T23:20:36.290Z,100143.00
2022-08-25T23:23:48.058Z,100143.25
2022-08-25T23:26:51.405Z,100137.50
2022-08-25T23:29:54.394Z,100136.78
2022-08-25T23:32:56.690Z,100140.88
2022-08-25T23:36:00.925Z,100131.87
2022-08-25T23:39:04.365Z,100133.25
2022-08-25T23:42:08.798Z,100132.66
2022-08-25T23:45:11.231Z,100131.34
2022-08-25T23:48:14.293Z,100124.66
2022-08-25T23:51:29.292Z,100124.19
2022-08-25T23:54:32.001Z,100129.47
2022-08-25T23:57:34.916Z,100124.00
